Time,TemperatureF,DewpointF,PressureIn,WindDirection,WindDirectionDegrees,WindSpeedMPH,WindSpeedGustMPH,Humidity,HourlyPrecipIn,Conditions,Clouds,dailyrainin,SoftwareType,DateUTC
2013-05-22 00:07:00,52.2,23.0,29.90,SE,125,0.0,-999.0,32,-99.99,,,0.00,weatherlink.com 1.10,2013-05-22 07:07:00,
2013-05-22 00:22:00,53.2,19.0,29.90,ENE,57,0.0,-999.0,26,-99.99,,,0.00,weatherlink.com 1.10,2013-05-22 07:22:00,
2013-05-22 00:37:00,54.1,18.0,29.90,NW,309,0.0,-999.0,24,-99.99,,,0.00,weatherlink.com 1.10,2013-05-22 07:37:00,
2013-05-22 00:52:00,54.9,18.0,29.89,NNE,33,0.0,-999.0,23,-99.99,,,0.00,weatherlink.com 1.10,2013-05-22 07:52:00,
2013-05-22 01:07:00,54.7,18.0,29.89,NNE,33,0.0,-999.0,24,-99.99,,,0.00,weatherlink.com 1.10,2013-05-22 08:07:00,
2013-05-22 01:22:00,55.4,17.0,29.89,SSE,150,0.0,-999.0,22,-99.99,,,0.00,weatherlink.com 1.10,2013-05-22 08:22:00,
2013-05-22 01:37:00,55.6,15.0,29.89,ENE,57,1.0,-999.0,20,-99.99,,,0.00,weatherlink.com 1.10,2013-05-22 08:37:00,
2013-05-22 01:52:00,56.0,18.0,29.89,North,355,0.0,-999.0,23,-99.99,,,0.00,weatherlink.com 1.10,2013-05-22 08:52:00,
2013-05-22 02:07:00,55.4,17.0,29.89,WNW,303,0.0,-999.0,22,-99.99,,,0.00,weatherlink.com 1.10,2013-05-22 09:07:00,
2013-05-22 02:22:00,54.6,20.0,29.89,WNW,303,0.0,-999.0,26,-99.99,,,0.00,weatherlink.com 1.10,2013-05-22 09:22:00,
2013-05-22 02:37:00,53.7,20.0,29.89,WNW,303,0.0,-999.0,27,-99.99,,,0.00,weatherlink.com 1.10,2013-05-22 09:37:00,
2013-05-22 02:52:00,52.9,20.0,29.89,NW,322,0.0,-999.0,27,-99.99,,,0.00,weatherlink.com 1.10,2013-05-22 09:52:00,
2013-05-22 03:07:00,53.0,18.0,29.89,East,99,0.0,-999.0,25,-99.99,,,0.00,weatherlink.com 1.10,2013-05-22 10:07:00,
2013-05-22 03:22:00,53.1,16.0,29.89,East,91,0.0,-999.0,23,-99.99,,,0.00,weatherlink.com 1.10,2013-05-22 10:22:00,
2013-05-22 03:37:00,53.0,13.0,29.88,NNE,21,0.0,-999.0,20,-99.99,,,0.00,weatherlink.com 1.10,2013-05-22 10:37:00,
2013-05-22 03:52:00,53.9,14.0,29.87,NE,36,0.0,-999.0,20,-99.99,,,0.00,weatherlink.com 1.10,2013-05-22 10:52:00,
2013-05-22 04:07:00,56.3,17.0,29.87,NNW,348,0.0,-999.0,21,-99.99,,,0.00,weatherlink.com 1.10,2013-05-22 11:07:00,
2013-05-22 04:22:00,57.0,18.0,29.86,NNE,24,0.0,-999.0,22,-99.99,,,0.00,weatherlink.com 1.10,2013-05-22 11:22:00,
2013-05-22 04:37:00,55.1,23.0,29.87,NW,309,0.0,-999.0,29,-99.99,,,0.00,weatherlink.com 1.10,2013-05-22 11:37:00,
2013-05-22 04:52:00,53.3,23.0,29.87,NNW,331,0.0,-999.0,31,-99.99,,,0.00,weatherlink.com 1.10,2013-05-22 11:52:00,
2013-05-22 05:07:00,52.5,25.0,29.87,WNW,286,0.0,-999.0,34,-99.99,,,0.00,weatherlink.com 1.10,2013-05-22 12:07:00,
2013-05-22 05:22:00,53.3,25.0,29.87,East,88,1.0,-999.0,33,-99.99,,,0.00,weatherlink.com 1.10,2013-05-22 12:22:00,
2013-05-22 05:37:00,54.1,27.0,29.88,East,94,0.0,-999.0,35,-99.99,,,0.00,weatherlink.com 1.10,2013-05-22 12:37:00,
2013-05-22 05:52:00,54.3,28.0,29.88,North,5,6.0,-999.0,36,-99.99,,,0.00,weatherlink.com 1.10,2013-05-22 12:52:00,
2013-05-22 06:07:00,54.0,29.0,29.88,North,360,1.0,-999.0,38,-99.99,,,0.00,weatherlink.com 1.10,2013-05-22 13:07:00,
2013-05-22 06:22:00,54.7,29.0,29.89,NE,52,0.0,-999.0,38,-99.99,,,0.00,weatherlink.com 1.10,2013-05-22 13:22:00,
2013-05-22 06:37:00,54.5,29.0,29.89,NE,45,0.0,-999.0,38,-99.99,,,0.00,weatherlink.com 1.10,2013-05-22 13:37:00,
2013-05-22 06:52:00,54.5,29.0,29.89,ENE,74,0.0,-999.0,38,-99.99,,,0.00,weatherlink.com 1.10,2013-05-22 13:52:00,
2013-05-22 07:07:00,54.1,29.0,29.90,East,90,0.0,-999.0,38,-99.99,,,0.00,weatherlink.com 1.10,2013-05-22 14:07:00,
2013-05-22 07:22:00,54.6,30.0,29.91,NNE,26,0.0,-999.0,39,-99.99,,,0.00,weatherlink.com 1.10,2013-05-22 14:22:00,
2013-05-22 07:37:00,55.3,31.0,29.91,ENE,78,0.0,-999.0,40,-99.99,,,0.00,weatherlink.com 1.10,2013-05-22 14:37:00,
2013-05-22 07:52:00,56.5,32.0,29.91,NE,36,0.0,-999.0,39,-99.99,,,0.00,weatherlink.com 1.10,2013-05-22 14:52:00,
2013-05-22 08:07:00,57.0,32.0,29.91,ENE,67,0.0,-999.0,39,-99.99,,,0.00,weatherlink.com 1.10,2013-05-22 15:07:00,
2013-05-22 08:21:00,57.7,33.0,29.92,ENE,67,0.0,-999.0,39,-99.99,,,0.00,weatherlink.com 1.10,2013-05-22 15:21:00,
2013-05-22 08:36:00,58.2,30.0,29.92,NNW,337,2.0,-999.0,34,-99.99,,,0.00,weatherlink.com 1.10,2013-05-22 15:36:00,
2013-05-22 08:51:00,59.0,30.0,29.93,West,275,0.0,-999.0,33,-99.99,,,0.00,weatherlink.com 1.10,2013-05-22 15:51:00,
2013-05-22 09:06:00,59.3,29.0,29.93,NNE,33,0.0,-999.0,32,-99.99,,,0.00,weatherlink.com 1.10,2013-05-22 16:06:00,
2013-05-22 09:21:00,60.7,30.0,29.93,NW,317,0.0,-999.0,32,-99.99,,,0.00,weatherlink.com 1.10,2013-05-22 16:21:00,
2013-05-22 09:36:00,61.2,33.0,29.94,SE,127,3.0,-999.0,35,-99.99,,,0.00,weatherlink.com 1.10,2013-05-22 16:36:00,
2013-05-22 09:51:00,61.7,30.0,29.94,NW,309,0.0,-999.0,30,-99.99,,,0.00,weatherlink.com 1.10,2013-05-22 16:51:00,
2013-05-22 10:06:00,62.0,27.0,29.94,NNE,32,6.0,-999.0,26,-99.99,,,0.00,weatherlink.com 1.10,2013-05-22 17:06:00,
2013-05-22 10:21:00,62.3,34.0,29.95,East,100,0.0,-999.0,35,-99.99,,,0.00,weatherlink.com 1.10,2013-05-22 17:21:00,
2013-05-22 10:36:00,62.6,37.0,29.95,West,276,0.0,-999.0,39,-99.99,,,0.00,weatherlink.com 1.10,2013-05-22 17:36:00,
2013-05-22 10:51:00,63.1,23.0,29.95,ESE,119,0.0,-999.0,22,-99.99,,,0.00,weatherlink.com 1.10,2013-05-22 17:51:00,
2013-05-22 11:06:00,64.8,24.0,29.95,ESE,117,0.0,-999.0,21,-99.99,,,0.00,weatherlink.com 1.10,2013-05-22 18:06:00,
2013-05-22 11:21:00,63.6,32.0,29.95,East,100,0.0,-999.0,31,-99.99,,,0.00,weatherlink.com 1.10,2013-05-22 18:21:00,
2013-05-22 11:37:00,65.2,38.0,29.95,ENE,73,0.0,-999.0,37,-99.99,,,0.00,weatherlink.com 1.10,2013-05-22 18:37:00,
2013-05-22 11:52:00,65.3,30.0,29.95,WSW,239,0.0,-999.0,27,-99.99,,,0.00,weatherlink.com 1.10,2013-05-22 18:52:00,
2013-05-22 12:07:00,60.4,35.0,29.95,WSW,241,0.0,-999.0,39,-99.99,,,0.00,weatherlink.com 1.10,2013-05-22 19:07:00,
2013-05-22 12:22:00,61.5,40.0,29.95,WSW,242,0.0,-999.0,45,-99.99,,,0.00,weatherlink.com 1.10,2013-05-22 19:22:00,
2013-05-22 12:37:00,59.3,39.0,29.95,SW,229,0.0,-999.0,48,-99.99,,,0.00,weatherlink.com 1.10,2013-05-22 19:37:00,
2013-05-22 12:52:00,60.9,34.0,29.95,SW,226,0.0,-999.0,36,-99.99,,,0.00,weatherlink.com 1.10,2013-05-22 19:52:00,
2013-05-22 13:07:00,61.5,35.0,29.94,SW,220,0.0,-999.0,38,-99.99,,,0.00,weatherlink.com 1.10,2013-05-22 20:07:00,
2013-05-22 13:22:00,61.5,34.0,29.94,SW,226,0.0,-999.0,36,-99.99,,,0.00,weatherlink.com 1.10,2013-05-22 20:22:00,
2013-05-22 13:37:00,61.8,38.0,29.94,SSE,156,2.0,-999.0,41,-99.99,,,0.00,weatherlink.com 1.10,2013-05-22 20:37:00,
2013-05-22 13:52:00,61.1,37.0,29.94,South,184,0.0,-999.0,41,-99.99,,,0.00,weatherlink.com 1.10,2013-05-22 20:52:00,
2013-05-22 14:07:00,61.1,39.0,29.94,WSW,250,0.0,-999.0,45,-99.99,,,0.00,weatherlink.com 1.10,2013-05-22 21:07:00,
2013-05-22 14:22:00,60.7,40.0,29.93,SSW,212,0.0,-999.0,47,-99.99,,,0.00,weatherlink.com 1.10,2013-05-22 21:22:00,
2013-05-22 14:37:00,60.7,41.0,29.93,SE,129,5.0,-999.0,48,-99.99,,,0.00,weatherlink.com 1.10,2013-05-22 21:37:00,
2013-05-22 14:52:00,60.4,41.0,29.93,ESE,122,0.0,-999.0,49,-99.99,,,0.00,weatherlink.com 1.10,2013-05-22 21:52:00,
2013-05-22 15:07:00,61.6,42.0,29.93,SE,136,0.0,-999.0,48,-99.99,,,0.00,weatherlink.com 1.10,2013-05-22 22:07:00,
2013-05-22 15:22:00,64.7,39.0,29.93,South,173,0.0,-999.0,39,-99.99,,,0.00,weatherlink.com 1.10,2013-05-22 22:22:00,
2013-05-22 15:37:00,62.9,39.0,29.93,SE,128,4.0,-999.0,42,-99.99,,,0.00,weatherlink.com 1.10,2013-05-22 22:37:00,
2013-05-22 15:52:00,61.8,40.0,29.92,South,183,0.0,-999.0,45,-99.99,,,0.00,weatherlink.com 1.10,2013-05-22 22:52:00,
2013-05-22 16:07:00,63.1,38.0,29.92,NE,43,0.0,-999.0,39,-99.99,,,0.00,weatherlink.com 1.10,2013-05-22 23:07:00,
2013-05-22 16:22:00,64.7,36.0,29.91,ESE,115,0.0,-999.0,34,-99.99,,,0.00,weatherlink.com 1.10,2013-05-22 23:22:00,
2013-05-22 16:37:00,64.2,30.0,29.91,ENE,69,1.0,-999.0,28,-99.99,,,0.00,weatherlink.com 1.10,2013-05-22 23:37:00,
2013-05-22 16:52:00,65.2,29.0,29.91,SSW,202,0.0,-999.0,26,-99.99,,,0.00,weatherlink.com 1.10,2013-05-22 23:52:00,
2013-05-22 17:07:00,64.4,27.0,29.91,NE,52,1.0,-999.0,24,-99.99,,,0.00,weatherlink.com 1.10,2013-05-23 00:07:00,
2013-05-22 17:22:00,63.4,25.0,29.91,West,281,1.0,-999.0,23,-99.99,,,0.00,weatherlink.com 1.10,2013-05-23 00:22:00,
2013-05-22 17:37:00,62.8,30.0,29.91,SSW,213,0.0,-999.0,29,-99.99,,,0.00,weatherlink.com 1.10,2013-05-23 00:37:00,
2013-05-22 17:52:00,61.3,26.0,29.91,NNW,331,2.0,-999.0,26,-99.99,,,0.00,weatherlink.com 1.10,2013-05-23 00:52:00,
2013-05-22 18:07:00,59.9,27.0,29.92,North,355,0.0,-999.0,28,-99.99,,,0.00,weatherlink.com 1.10,2013-05-23 01:07:00,
2013-05-22 18:22:00,59.7,29.0,29.93,ENE,59,0.0,-999.0,31,-99.99,,,0.00,weatherlink.com 1.10,2013-05-23 01:22:00,
2013-05-22 18:37:00,59.5,25.0,29.92,SE,129,0.0,-999.0,27,-99.99,,,0.00,weatherlink.com 1.10,2013-05-23 01:37:00,
2013-05-22 18:52:00,59.0,26.0,29.92,West,264,0.0,-999.0,28,-99.99,,,0.00,weatherlink.com 1.10,2013-05-23 01:52:00,
2013-05-22 19:07:00,58.3,24.0,29.93,South,176,0.0,-999.0,27,-99.99,,,0.00,weatherlink.com 1.10,2013-05-23 02:07:00,
2013-05-22 19:22:00,56.5,25.0,29.93,East,98,0.0,-999.0,30,-99.99,,,0.00,weatherlink.com 1.10,2013-05-23 02:22:00,
2013-05-22 19:37:00,54.8,26.0,29.93,NNE,30,9.0,-999.0,33,-99.99,,,0.00,weatherlink.com 1.10,2013-05-23 02:37:00,
2013-05-22 19:52:00,52.6,27.0,29.93,NE,38,3.0,-999.0,37,-99.99,,,0.00,weatherlink.com 1.10,2013-05-23 02:52:00,
2013-05-22 20:08:00,51.3,26.0,29.93,North,355,3.0,-999.0,37,-99.99,,,0.00,weatherlink.com 1.10,2013-05-23 03:08:00,
2013-05-22 20:22:00,50.7,24.0,29.94,ENE,77,3.0,-999.0,36,-99.99,,,0.00,weatherlink.com 1.10,2013-05-23 03:22:00,
2013-05-22 20:37:00,50.9,24.0,29.94,NE,34,8.0,-999.0,35,-99.99,,,0.00,weatherlink.com 1.10,2013-05-23 03:37:00,
2013-05-22 20:52:00,50.5,23.0,29.95,North,11,3.0,-999.0,34,-99.99,,,0.00,weatherlink.com 1.10,2013-05-23 03:52:00,
2013-05-22 21:07:00,50.2,21.0,29.95,NNE,32,3.0,-999.0,32,-99.99,,,0.00,weatherlink.com 1.10,2013-05-23 04:07:00,
2013-05-22 22:14:00,49.3,21.0,29.95,NNE,32,3.0,-999.0,33,-99.99,,,0.00,weatherlink.com 1.10,2013-05-23 05:14:00,
2013-05-22 22:21:00,48.4,24.0,29.95,NE,49,4.0,-999.0,39,-99.99,,,0.00,weatherlink.com 1.10,2013-05-23 05:21:00,
2013-05-22 22:37:00,46.8,27.0,29.95,NE,35,11.0,-999.0,46,-99.99,,,0.00,weatherlink.com 1.10,2013-05-23 05:37:00,
2013-05-22 22:52:00,46.4,26.0,29.96,NNE,33,2.0,-999.0,46,-99.99,,,0.00,weatherlink.com 1.10,2013-05-23 05:52:00,
2013-05-22 23:07:00,46.7,27.0,29.96,SE,128,6.0,-999.0,46,-99.99,,,0.00,weatherlink.com 1.10,2013-05-23 06:07:00,
2013-05-22 23:22:00,46.8,27.0,29.96,NE,47,0.0,-999.0,46,-99.99,,,0.00,weatherlink.com 1.10,2013-05-23 06:22:00,
2013-05-22 23:37:00,46.9,26.0,29.96,ENE,64,0.0,-999.0,44,-99.99,,,0.00,weatherlink.com 1.10,2013-05-23 06:37:00,
2013-05-22 23:52:00,47.2,27.0,29.96,NNE,19,0.0,-999.0,46,-99.99,,,0.00,weatherlink.com 1.10,2013-05-23 06:52:00,